Time;durP1;ratioP1;P1;durP2;ratioP2;P2;SDS_P1;SDS_P2;PMS_P1;PMS_P2;Temp;Humidity;BMP_temperature;BMP_pressure;BME280_temperature;BME280_humidity;BME280_pressure;Samples;Min_cycle;Max_cycle;Signal;HPM_P1;HPM_P2
2022/09/17 00:02:06;;;;;;;13.02;2.95;;;;;;;11.99;63.28;101409.53;5158941;28;21160;-48
2022/09/17 00:04:38;;;;;;;18.25;4.07;;;;;;;11.99;63.39;101417.47;5162312;28;20493;-49
2022/09/17 00:07:11;;;;;;;15.52;4.20;;;;;;;12.06;63.47;101420.38;5166593;28;20128;-50
2022/09/17 00:09:45;;;;;;;9.13;2.97;;;;;;;12.08;63.36;101417.56;5137126;28;20061;-47
2022/09/17 00:12:18;;;;;;;13.13;2.45;;;;;;;12.06;63.28;101419.53;5155178;28;20045;-47
2022/09/17 00:14:51;;;;;;;24.73;4.25;;;;;;;12.03;63.24;101406.59;5164190;28;20429;-50
2022/09/17 00:17:23;;;;;;;15.18;3.58;;;;;;;12.08;63.04;101421.06;5158301;28;20075;-48
2022/09/17 00:19:56;;;;;;;20.65;5.13;;;;;;;11.97;63.15;101400.06;5168187;28;20497;-49
2022/09/17 00:22:28;;;;;;;13.40;4.53;;;;;;;11.96;63.11;101409.81;5165193;28;20091;-44
2022/09/17 00:25:03;;;;;;;21.85;4.55;;;;;;;11.96;63.20;101415.09;5167293;28;20377;-45
2022/09/17 00:27:35;;;;;;;15.15;2.70;;;;;;;11.96;63.14;101409.00;5161232;28;20041;-49
2022/09/17 00:30:11;;;;;;;32.38;4.22;;;;;;;11.94;63.17;101414.41;5156389;28;20382;-50
2022/09/17 00:32:43;;;;;;;16.02;3.53;;;;;;;11.96;63.33;101438.09;5170102;28;20041;-49
2022/09/17 00:35:16;;;;;;;17.95;4.20;;;;;;;11.95;63.07;101424.03;5124301;28;20373;-47
2022/09/17 00:37:49;;;;;;;7.75;2.72;;;;;;;11.92;63.08;101411.09;5148130;28;20048;-50
2022/09/17 00:40:23;;;;;;;8.90;2.28;;;;;;;11.89;63.05;101414.03;5142838;28;20045;-40
2022/09/17 00:42:56;;;;;;;15.48;3.33;;;;;;;11.94;63.09;101422.34;5144687;28;20125;-49
2022/09/17 00:45:30;;;;;;;16.33;4.25;;;;;;;11.93;63.18;101439.22;5142136;28;20045;-49
2022/09/17 00:48:06;;;;;;;14.05;3.50;;;;;;;11.81;63.05;101426.28;5132262;28;20409;-45
2022/09/17 00:50:43;;;;;;;15.75;3.05;;;;;;;11.82;63.21;101438.53;5145750;28;20046;-49
2022/09/17 00:53:26;;;;;;;9.15;2.13;;;;;;;11.92;63.17;101453.44;5143424;28;20440;-44
2022/09/17 00:56:06;;;;;;;13.13;3.30;;;;;;;11.93;62.99;101446.34;5144984;28;20041;-48
2022/09/17 00:58:39;;;;;;;10.85;3.03;;;;;;;11.98;62.90;101459.94;5137908;28;20048;-45
2022/09/17 01:01:13;;;;;;;11.20;2.45;;;;;;;11.89;62.73;101435.19;5136874;28;20061;-47
2022/09/17 01:03:47;;;;;;;11.75;3.55;;;;;;;11.94;63.07;101446.16;5136722;28;20515;-44
2022/09/17 01:06:30;;;;;;;7.35;1.95;;;;;;;11.82;63.31;101425.28;5137264;28;20445;-44
2022/09/17 01:09:15;;;;;;;;;;;;;;;11.87;63.32;101437.16;5133706;28;20450;-49
2022/09/17 01:12:20;;;;;;;9.38;4.15;;;;;;;11.83;63.52;101430.44;5138214;28;19944;-49
2022/09/17 01:15:10;;;;;;;10.60;2.55;;;;;;;11.72;63.41;101422.66;5135876;28;20410;-47
2022/09/17 01:17:52;;;;;;;14.52;3.80;;;;;;;11.67;63.44;101420.44;5143483;28;20440;-47
2022/09/17 01:21:07;;;;;;;20.58;3.15;;;;;;;11.69;63.52;101422.94;5147651;28;20460;-48
2022/09/17 01:24:34;;;;;;;19.25;2.97;;;;;;;11.53;63.57;101419.09;5145123;28;20573;-46
2022/09/17 01:27:54;;;;;;;16.10;3.90;;;;;;;11.53;63.67;101419.09;5141687;28;20410;-45
2022/09/17 01:31:12;;;;;;;17.70;4.15;;;;;;;11.43;63.69;101415.63;5119522;28;20045;-44
2022/09/17 01:33:55;;;;;;;20.10;4.50;;;;;;;11.44;63.87;101435.81;5110422;28;20056;-45
2022/09/17 01:36:47;;;;;;;16.17;4.93;;;;;;;11.40;63.66;101426.50;5154301;28;20103;-44
2022/09/17 01:39:35;;;;;;;16.92;3.60;;;;;;;11.48;63.47;101429.25;5161139;28;20292;-46
2022/09/17 01:42:16;;;;;;;21.27;3.60;;;;;;;11.44;63.54;101417.28;5156711;28;20045;-45
2022/09/17 01:44:57;;;;;;;14.73;3.60;;;;;;;11.43;63.70;101428.84;5159632;28;20047;-47
2022/09/17 01:47:37;;;;;;;19.48;3.13;;;;;;;11.34;63.90;101429.69;5164176;28;20462;-50
2022/09/17 01:50:16;;;;;;;18.73;3.28;;;;;;;11.27;63.75;101431.19;5168240;28;20372;-48
2022/09/17 01:52:51;;;;;;;25.92;4.68;;;;;;;11.27;63.86;101433.84;5147952;28;20049;-44
2022/09/17 01:55:29;;;;;;;21.80;4.93;;;;;;;11.12;63.84;101424.66;5159046;28;20063;-49
2022/09/17 01:58:08;;;;;;;19.80;4.03;;;;;;;11.21;63.94;101440.56;5161722;28;20180;-44
2022/09/17 02:00:45;;;;;;;20.35;3.67;;;;;;;11.19;63.85;101445.13;5157114;28;20049;-49
2022/09/17 02:03:29;;;;;;;19.63;3.63;;;;;;;11.11;63.96;101428.28;5148807;28;20263;-51
2022/09/17 02:06:08;;;;;;;18.67;3.53;;;;;;;11.15;64.00;101440.25;5161412;28;20450;-44
2022/09/17 02:08:46;;;;;;;19.00;3.92;;;;;;;11.08;64.21;101432.03;5159321;28;20060;-49
2022/09/17 02:11:20;;;;;;;22.05;4.15;;;;;;;11.11;63.90;101438.88;5165100;28;20057;-48
2022/09/17 02:13:58;;;;;;;7.30;2.60;;;;;;;11.12;64.14;101445.81;5154810;28;20045;-45
2022/09/17 02:16:33;;;;;;;18.40;3.00;;;;;;;11.08;64.11;101454.03;5162709;28;20415;-48
2022/09/17 02:19:16;;;;;;;25.35;3.75;;;;;;;11.10;64.25;101468.94;5157855;28;20273;-51
2022/09/17 02:21:57;;;;;;;15.48;3.38;;;;;;;11.08;64.11;101458.47;5159401;28;20322;-50
2022/09/17 02:24:37;;;;;;;10.20;3.53;;;;;;;11.23;64.36;101472.13;5156275;28;20134;-48
2022/09/17 02:27:19;;;;;;;11.80;3.40;;;;;;;11.30;64.22;101460.00;5160591;28;20053;-49
2022/09/17 02:29:52;;;;;;;16.20;3.63;;;;;;;11.40;64.04;101455.56;5167009;28;20068;-48
2022/09/17 02:32:24;;;;;;;13.85;2.20;;;;;;;11.47;64.02;101459.31;5164822;28;20068;-49
2022/09/17 02:34:58;;;;;;;10.35;2.45;;;;;;;11.44;63.90;101464.88;5160634;28;20037;-47
2022/09/17 02:37:31;;;;;;;11.52;3.83;;;;;;;11.34;64.09;101450.84;5158807;28;20045;-45
2022/09/17 02:40:08;;;;;;;14.85;2.75;;;;;;;11.34;64.06;101452.66;5165204;28;20037;-45
2022/09/17 02:43:06;;;;;;;6.47;2.78;;;;;;;11.23;64.26;101450.97;5157380;28;20052;-49
2022/09/17 02:45:53;;;;;;;22.73;4.00;;;;;;;11.21;64.21;101472.28;5159861;28;20405;-49
2022/09/17 02:48:49;;;;;;;9.95;2.80;;;;;;;11.06;64.17;101437.47;5127059;28;20390;-50
2022/09/17 02:51:33;;;;;;;11.75;3.88;;;;;;;11.13;64.35;101473.94;5137450;28;20088;-43
2022/09/17 02:54:17;;;;;;;14.77;2.95;;;;;;;11.00;64.25;101459.19;5154852;28;20458;-48
2022/09/17 02:57:00;;;;;;;8.95;2.30;;;;;;;11.08;64.34;101476.97;5112848;28;20466;-47
2022/09/17 02:59:41;;;;;;;14.73;3.40;;;;;;;11.07;64.36;101480.59;5148585;28;20447;-45
2022/09/17 03:02:20;;;;;;;14.18;2.33;;;;;;;11.03;64.39;101466.84;5163657;28;20056;-46
2022/09/17 03:04:55;;;;;;;14.02;2.63;;;;;;;11.00;64.28;101453.06;5157362;28;20461;-44
2022/09/17 03:07:29;;;;;;;9.32;2.03;;;;;;;11.07;64.13;101460.28;5163479;28;20068;-53
2022/09/17 03:10:01;;;;;;;12.00;3.20;;;;;;;11.28;63.83;101467.28;5159282;28;20447;-45
2022/09/17 03:12:34;;;;;;;9.65;2.38;;;;;;;11.28;63.63;101454.06;5159879;28;20385;-43
2022/09/17 03:15:09;;;;;;;5.47;2.50;;;;;;;11.45;63.36;101471.84;5155055;28;20049;-48
2022/09/17 03:17:41;;;;;;;14.32;3.28;;;;;;;11.46;63.16;101470.06;5147207;28;20041;-47
2022/09/17 03:20:15;;;;;;;11.75;4.07;;;;;;;11.50;62.99;101472.28;5151711;28;20408;-45
2022/09/17 03:22:51;;;;;;;19.75;2.63;;;;;;;11.61;62.76;101478.38;5144575;28;20053;-47
2022/09/17 03:25:23;;;;;;;17.65;3.90;;;;;;;11.71;62.44;101487.16;5151632;28;20417;-45
2022/09/17 03:28:08;;;;;;;10.88;2.53;;;;;;;11.56;62.67;101464.75;5153658;28;20037;-45
2022/09/17 03:30:40;;;;;;;10.70;2.85;;;;;;;11.67;62.64;101477.81;5161700;28;20325;-47
2022/09/17 03:33:14;;;;;;;14.57;2.47;;;;;;;11.63;62.53;101461.41;5158888;28;20511;-48
2022/09/17 03:35:49;;;;;;;10.80;4.03;;;;;;;11.58;62.58;101453.03;5158389;28;20114;-46
2022/09/17 03:38:23;;;;;;;12.60;2.90;;;;;;;11.56;62.72;101459.47;5155959;28;20040;-40
2022/09/17 03:41:00;;;;;;;8.23;2.92;;;;;;;11.54;62.81;101478.09;5168226;28;20041;-48
2022/09/17 03:43:33;;;;;;;10.50;2.50;;;;;;;11.40;62.68;101462.69;5165263;28;20489;-46
2022/09/17 03:46:06;;;;;;;11.25;2.50;;;;;;;11.38;62.79;101460.16;5167247;28;20052;-54
2022/09/17 03:48:38;;;;;;;;;;;;;;;11.41;62.87;101467.81;5164100;28;20481;-50
2022/09/17 03:51:11;;;;;;;11.05;2.40;;;;;;;11.35;62.87;101472.84;5165023;28;20380;-50
2022/09/17 03:53:45;;;;;;;7.50;2.75;;;;;;;11.31;62.81;101467.00;5135105;28;20489;-49
2022/09/17 03:56:18;;;;;;;9.55;2.22;;;;;;;11.33;62.81;101470.31;5158873;28;20399;-50
2022/09/17 03:58:52;;;;;;;10.98;3.28;;;;;;;11.42;62.63;101474.75;5166245;28;20437;-50
2022/09/17 04:01:25;;;;;;;14.80;3.00;;;;;;;11.43;62.40;101471.16;5154726;28;20377;-44
2022/09/17 04:03:58;;;;;;;15.15;2.75;;;;;;;11.40;62.46;101474.09;5155881;28;20057;-44
2022/09/17 04:06:31;;;;;;;3.85;2.13;;;;;;;11.31;62.74;101474.94;5163912;28;20072;-49
2022/09/17 04:09:05;;;;;;;11.50;2.80;;;;;;;11.35;62.54;101480.78;5175267;28;20481;-45
2022/09/17 04:11:38;;;;;;;11.90;2.50;;;;;;;11.31;62.72;101490.78;5163600;28;20072;-45
2022/09/17 04:14:10;;;;;;;13.88;2.92;;;;;;;11.30;62.65;101491.75;5168360;28;20486;-46
2022/09/17 04:16:43;;;;;;;9.77;2.90;;;;;;;11.31;62.67;101472.28;5166827;28;20048;-48
2022/09/17 04:19:15;;;;;;;10.65;4.35;;;;;;;11.26;62.69;101459.47;5157817;28;20379;-46
2022/09/17 04:21:48;;;;;;;16.63;2.65;;;;;;;11.37;62.46;101482.31;5163888;28;20434;-51
2022/09/17 04:24:22;;;;;;;8.27;1.77;;;;;;;11.40;62.57;101489.97;5159228;28;20061;-46
2022/09/17 04:26:55;;;;;;;7.10;1.85;;;;;;;11.43;62.46;101481.75;5154557;28;20057;-47
2022/09/17 04:29:27;;;;;;;10.98;1.77;;;;;;;11.31;62.63;101461.69;5167058;28;20469;-45
2022/09/17 04:32:00;;;;;;;8.15;2.47;;;;;;;11.35;62.56;101470.19;5156137;28;20449;-47
2022/09/17 04:34:33;;;;;;;6.20;1.95;;;;;;;11.19;62.56;101462.81;5171191;28;20433;-40
2022/09/17 04:37:05;;;;;;;7.50;1.88;;;;;;;11.08;62.96;101469.88;5174692;28;20091;-48
2022/09/17 04:39:39;;;;;;;6.45;2.50;;;;;;;11.07;62.86;101481.44;5172760;28;20060;-48
2022/09/17 04:42:15;;;;;;;8.80;2.20;;;;;;;10.98;63.00;101503.41;5157047;28;21800;-49
2022/09/17 04:44:48;;;;;;;10.63;2.10;;;;;;;10.95;63.12;101503.66;5163756;28;20520;-44
2022/09/17 04:47:21;;;;;;;5.97;2.25;;;;;;;10.80;63.24;101487.34;5159545;28;20411;-49
2022/09/17 04:49:53;;;;;;;5.85;2.17;;;;;;;10.79;63.19;101490.16;5151542;28;20364;-48
2022/09/17 04:52:26;;;;;;;7.60;1.40;;;;;;;10.73;63.25;101490.69;5162055;28;20465;-48
2022/09/17 04:55:01;;;;;;;8.38;1.98;;;;;;;10.75;63.23;101491.41;5158450;28;20166;-48
2022/09/17 04:57:34;;;;;;;6.05;2.20;;;;;;;10.73;63.33;101488.88;5154252;28;20414;-45
2022/09/17 05:00:09;;;;;;;8.20;2.10;;;;;;;10.81;63.32;101490.88;5170671;28;20040;-45
2022/09/17 05:02:42;;;;;;;13.35;2.33;;;;;;;10.85;63.24;101493.09;5147976;28;20944;-45
2022/09/17 05:05:15;;;;;;;;;;;;;;;10.91;63.21;101491.72;5163933;28;20470;-51
2022/09/17 05:07:48;;;;;;;12.17;2.30;;;;;;;10.90;63.15;101474.19;5159466;28;19920;-45
2022/09/17 05:10:25;;;;;;;12.00;2.03;;;;;;;11.00;63.03;101484.78;5159350;28;20299;-51
2022/09/17 05:12:58;;;;;;;7.15;1.77;;;;;;;11.05;62.92;101488.66;5148609;28;20462;-46
2022/09/17 05:15:30;;;;;;;9.50;2.20;;;;;;;11.11;62.87;101491.72;5164948;28;20441;-41
2022/09/17 05:18:03;;;;;;;10.65;2.20;;;;;;;11.11;62.85;101489.09;5175214;28;20045;-46
2022/09/17 05:20:35;;;;;;;14.77;2.50;;;;;;;11.14;62.48;101492.28;5169701;28;20080;-49
2022/09/17 05:23:08;;;;;;;24.55;4.13;;;;;;;11.17;62.79;101491.19;5151854;28;20421;-47
2022/09/17 05:25:42;;;;;;;8.50;1.90;;;;;;;11.12;63.02;101488.09;5130370;28;20148;-52
2022/09/17 05:28:15;;;;;;;9.02;2.20;;;;;;;11.10;62.99;101482.16;5164902;28;20064;-48
2022/09/17 05:30:47;;;;;;;20.75;4.25;;;;;;;11.10;62.85;101482.97;5157076;28;20502;-45
2022/09/17 05:33:20;;;;;;;14.43;3.60;;;;;;;11.19;63.09;101479.50;5152857;28;20456;-46
2022/09/17 05:35:53;;;;;;;13.80;3.38;;;;;;;11.19;62.87;101483.97;5166885;28;20401;-37
2022/09/17 05:38:25;;;;;;;8.13;2.53;;;;;;;11.20;62.85;101480.34;5155309;28;20651;-44
2022/09/17 05:41:03;;;;;;;15.77;3.05;;;;;;;11.24;62.84;101497.59;5164463;28;20392;-43
2022/09/17 05:43:36;;;;;;;15.35;4.45;;;;;;;11.28;62.81;101504.28;5145847;28;20496;-46
2022/09/17 05:46:09;;;;;;;15.25;4.88;;;;;;;11.36;62.61;101506.22;5112142;28;20058;-46
2022/09/17 05:48:42;;;;;;;15.50;4.47;;;;;;;11.39;62.61;101498.03;5152002;28;20612;-50
2022/09/17 05:51:15;;;;;;;16.73;3.80;;;;;;;11.44;62.86;101499.28;5166177;28;20049;-48
2022/09/17 05:53:55;;;;;;;12.43;3.03;;;;;;;11.54;62.73;101502.75;5145927;28;20543;-49
2022/09/17 05:56:29;;;;;;;14.70;2.30;;;;;;;11.46;62.72;101486.75;5158237;28;20055;-46
2022/09/17 05:59:29;;;;;;;6.22;2.38;;;;;;;11.65;62.48;101514.19;5153435;28;20057;-47
2022/09/17 06:02:01;;;;;;;7.97;1.83;;;;;;;11.73;62.34;101509.00;5144256;28;20037;-46
2022/09/17 06:04:34;;;;;;;8.13;3.25;;;;;;;11.80;62.12;101494.25;5138850;28;20052;-45
2022/09/17 06:07:08;;;;;;;9.27;2.10;;;;;;;11.95;61.91;101498.16;5144265;28;20367;-45
2022/09/17 06:09:41;;;;;;;8.00;2.85;;;;;;;12.07;61.52;101495.31;5163040;28;20555;-45
2022/09/17 06:12:15;;;;;;;6.85;2.08;;;;;;;12.23;61.01;101498.19;5155471;28;20068;-45
2022/09/17 06:14:47;;;;;;;9.30;2.78;;;;;;;12.48;60.68;101498.53;5150514;28;20046;-49
2022/09/17 06:17:23;;;;;;;12.18;2.40;;;;;;;12.85;60.25;101517.91;5155621;28;20046;-48
2022/09/17 06:19:55;;;;;;;13.50;4.05;;;;;;;13.05;59.83;101512.47;5160037;28;20045;-45
2022/09/17 06:22:28;;;;;;;7.45;2.33;;;;;;;13.05;59.63;101518.59;5164695;28;20041;-45
2022/09/17 06:25:26;;;;;;;11.15;2.55;;;;;;;12.91;59.65;101527.91;5158929;28;20523;-44
2022/09/17 06:28:02;;;;;;;7.82;3.05;;;;;;;12.72;59.57;101532.47;5137680;28;20041;-47
2022/09/17 06:30:37;;;;;;;12.75;2.72;;;;;;;12.48;59.80;101519.72;5159348;28;20099;-49
2022/09/17 06:33:10;;;;;;;8.70;2.17;;;;;;;12.43;59.93;101523.66;5143808;28;20405;-47
2022/09/17 06:36:09;;;;;;;12.77;1.83;;;;;;;12.54;59.77;101529.75;5160434;28;20077;-45
2022/09/17 06:38:43;;;;;;;16.75;2.95;;;;;;;12.99;59.80;101529.81;5160094;28;22475;-50
2022/09/17 06:41:15;;;;;;;;;;;;;;;14.36;59.15;101534.81;5161852;28;20045;-44
2022/09/17 06:43:53;;;;;;;14.03;2.47;;;;;;;16.09;57.48;101517.25;5157503;28;19921;-49
2022/09/17 06:46:43;;;;;;;9.88;2.22;;;;;;;17.80;52.26;101508.53;5164597;28;20477;-48
2022/09/17 06:49:16;;;;;;;5.82;1.60;;;;;;;18.16;48.69;101520.22;5155208;28;20451;-48
2022/09/17 06:51:49;;;;;;;7.90;1.92;;;;;;;18.84;47.60;101525.47;5167502;28;20572;-46
2022/09/17 06:54:22;;;;;;;2.72;1.45;;;;;;;18.69;47.76;101530.00;5168568;28;20063;-44
2022/09/17 06:56:54;;;;;;;10.80;1.50;;;;;;;18.10;48.43;101530.81;5158990;28;20072;-48
2022/09/17 06:59:28;;;;;;;8.50;2.22;;;;;;;17.91;49.15;101533.00;5164642;28;20041;-47
2022/09/17 07:02:01;;;;;;;5.40;1.58;;;;;;;19.19;48.68;101521.13;5167399;28;20052;-44
2022/09/17 07:04:34;;;;;;;8.10;1.88;;;;;;;21.10;46.93;101509.25;5165715;28;20107;-49
2022/09/17 07:07:06;;;;;;;8.07;2.50;;;;;;;22.82;44.55;101506.59;5162552;28;20493;-45
2022/09/17 07:09:39;;;;;;;5.38;1.40;;;;;;;24.16;42.62;101529.72;5158480;28;20053;-48
2022/09/17 07:12:12;;;;;;;7.38;1.83;;;;;;;25.19;40.90;101522.69;5174069;28;20324;-45
2022/09/17 07:14:47;;;;;;;14.25;3.25;;;;;;;26.44;38.49;101527.03;5175039;28;20440;-49
2022/09/17 07:17:20;;;;;;;7.32;1.92;;;;;;;26.42;37.17;101526.44;5155388;28;20049;-49
2022/09/17 07:19:52;;;;;;;10.23;1.67;;;;;;;25.23;36.93;101519.28;5165494;28;20543;-41
2022/09/17 07:22:25;;;;;;;4.93;1.40;;;;;;;25.15;36.66;101516.94;5167996;28;20049;-49
2022/09/17 07:24:58;;;;;;;7.72;1.73;;;;;;;25.44;36.35;101527.94;5163298;28;20045;-49
2022/09/17 07:27:33;;;;;;;4.25;1.42;;;;;;;26.47;35.54;101515.72;5162323;28;20044;-51
2022/09/17 07:30:09;;;;;;;7.35;1.55;;;;;;;27.72;34.41;101513.97;5160667;28;20044;-48
2022/09/17 07:32:42;;;;;;;6.05;1.70;;;;;;;28.91;33.43;101515.28;5160957;28;20364;-52
2022/09/17 07:35:15;;;;;;;;;;;;;;;29.95;31.83;101507.75;5165479;28;20050;-50
2022/09/17 07:37:47;;;;;;;5.55;1.45;;;;;;;30.84;31.00;101499.72;5167477;28;20015;-52
2022/09/17 07:40:19;;;;;;;;;;;;;;;31.72;30.29;101512.34;5171921;28;20516;-52
2022/09/17 07:42:53;;;;;;;16.88;3.10;;;;;;;32.14;30.07;101515.50;5170052;28;19947;-51
2022/09/17 07:45:27;;;;;;;9.52;1.88;;;;;;;32.27;28.50;101508.66;5162242;28;20037;-49
2022/09/17 07:47:59;;;;;;;5.65;1.60;;;;;;;32.52;28.34;101515.13;5153158;28;20358;-52
2022/09/17 07:50:32;;;;;;;5.40;1.52;;;;;;;31.97;26.55;101528.69;5172092;28;20231;-54
2022/09/17 07:53:05;;;;;;;8.13;2.00;;;;;;;29.96;28.31;101538.53;5149712;28;20496;-49
2022/09/17 07:55:38;;;;;;;13.50;1.42;;;;;;;27.48;29.17;101554.00;5158881;28;20080;-49
2022/09/17 07:58:12;;;;;;;11.80;2.00;;;;;;;25.15;31.18;101556.63;5163690;28;20414;-47
2022/09/17 08:00:46;;;;;;;5.50;1.25;;;;;;;22.87;33.86;101537.25;5157884;28;20052;-49
2022/09/17 08:03:19;;;;;;;5.38;1.20;;;;;;;21.20;36.28;101533.00;5160614;28;20159;-47
2022/09/17 08:05:52;;;;;;;;;;;;;;;20.20;37.83;101526.38;5153442;28;20496;-50
2022/09/17 08:08:25;;;;;;;11.97;1.80;;;;;;;19.77;38.74;101524.59;5152448;28;19933;-50
2022/09/17 08:11:02;;;;;;;8.95;2.60;;;;;;;21.76;37.28;101529.19;5160752;28;20052;-50
2022/09/17 08:13:35;;;;;;;9.02;1.80;;;;;;;23.66;36.00;101545.91;5157309;28;20162;-51
2022/09/17 08:16:12;;;;;;;5.90;2.08;;;;;;;23.44;35.81;101542.75;5147959;28;20049;-50
2022/09/17 08:18:45;;;;;;;15.07;2.28;;;;;;;22.51;36.90;101530.53;5154701;28;20053;-51
2022/09/17 08:21:19;;;;;;;5.68;1.38;;;;;;;22.53;37.63;101538.41;5152002;28;20135;-50
2022/09/17 08:23:54;;;;;;;6.72;1.90;;;;;;;23.85;36.38;101523.38;5155889;28;20559;-52
2022/09/17 08:26:29;;;;;;;10.98;2.00;;;;;;;23.84;36.29;101537.06;5144810;28;20053;-51
2022/09/17 08:29:02;;;;;;;6.38;1.88;;;;;;;23.20;36.96;101549.75;5154386;28;20458;-50
2022/09/17 08:31:36;;;;;;;9.98;1.73;;;;;;;22.48;37.39;101559.75;5147728;28;20462;-49
2022/09/17 08:34:10;;;;;;;11.05;1.75;;;;;;;21.46;38.15;101564.50;5155954;28;20053;-49
2022/09/17 08:36:43;;;;;;;6.50;1.85;;;;;;;20.25;39.87;101543.53;5141162;28;20524;-51
2022/09/17 08:39:17;;;;;;;9.65;1.55;;;;;;;19.31;41.01;101546.41;5146958;28;20254;-49
2022/09/17 08:42:01;;;;;;;5.55;1.75;;;;;;;18.72;41.92;101553.69;5153637;28;20037;-47
2022/09/17 08:44:42;;;;;;;9.75;2.10;;;;;;;18.68;43.29;101542.53;5161737;28;20516;-51
2022/09/17 08:47:23;;;;;;;4.30;1.40;;;;;;;19.66;41.82;101549.22;5158037;28;20446;-47
2022/09/17 08:49:59;;;;;;;5.88;2.00;;;;;;;20.84;41.11;101536.00;5134331;28;20600;-48
2022/09/17 08:53:05;;;;;;;14.32;2.85;;;;;;;22.28;39.92;101543.66;5155000;28;20321;-49
2022/09/17 08:55:43;;;;;;;3.65;1.17;;;;;;;23.25;39.13;101533.75;5155610;28;20072;-45
2022/09/17 08:58:54;;;;;;;9.52;2.15;;;;;;;24.09;38.07;101528.94;5145903;28;20432;-47
2022/09/17 09:01:42;;;;;;;7.65;1.45;;;;;;;24.91;36.97;101536.78;5145816;28;20041;-52
2022/09/17 09:04:49;;;;;;;9.98;1.48;;;;;;;24.65;36.81;101544.16;5148918;28;20563;-50
2022/09/17 09:07:27;;;;;;;7.47;1.67;;;;;;;23.63;35.99;101573.31;5147506;28;20380;-49
2022/09/17 09:10:13;;;;;;;10.10;2.38;;;;;;;21.88;37.56;101566.00;5139900;28;20060;-51
2022/09/17 09:12:47;;;;;;;10.18;2.15;;;;;;;20.26;40.23;101577.38;5133828;28;20060;-48
2022/09/17 09:15:35;;;;;;;3.65;1.90;;;;;;;19.00;41.78;101575.28;5124792;28;20482;-51
2022/09/17 09:18:22;;;;;;;4.85;1.80;;;;;;;18.21;43.33;101559.78;5144321;28;20041;-54
2022/09/17 09:21:07;;;;;;;10.73;2.22;;;;;;;17.62;44.81;101570.25;5134566;28;20041;-50
2022/09/17 09:23:52;;;;;;;10.65;1.92;;;;;;;17.10;45.91;101550.41;5140123;28;20053;-48
2022/09/17 09:26:43;;;;;;;6.47;1.17;;;;;;;16.98;46.40;101565.97;5119741;28;20127;-50
2022/09/17 09:29:28;;;;;;;7.53;1.95;;;;;;;17.11;46.34;101567.25;5152324;28;20843;-52
2022/09/17 09:32:15;;;;;;;6.63;2.03;;;;;;;17.32;46.37;101558.63;5152680;28;20201;-46
2022/09/17 09:34:49;;;;;;;9.75;2.78;;;;;;;17.72;45.93;101565.53;5117902;28;20125;-50
2022/09/17 09:37:28;;;;;;;5.78;1.63;;;;;;;18.06;45.82;101562.44;5144816;28;20053;-50
2022/09/17 09:40:16;;;;;;;9.38;2.65;;;;;;;18.33;45.32;101562.81;5137648;28;20076;-49
2022/09/17 09:42:49;;;;;;;8.73;2.40;;;;;;;18.59;45.06;101563.22;5147933;28;20415;-49
2022/09/17 09:45:33;;;;;;;10.13;2.92;;;;;;;18.86;44.71;101560.91;5142716;28;20049;-48
2022/09/17 09:48:12;;;;;;;14.93;3.30;;;;;;;18.86;44.82;101559.06;5141050;28;20355;-48
2022/09/17 09:51:07;;;;;;;17.63;3.33;;;;;;;19.03;44.54;101566.88;5150403;28;20104;-53
2022/09/17 09:54:00;;;;;;;12.13;2.13;;;;;;;19.27;44.05;101571.91;5154147;28;20049;-49
2022/09/17 09:56:53;;;;;;;7.03;2.95;;;;;;;19.31;43.86;101567.81;5133552;28;20265;-49
2022/09/17 09:59:26;;;;;;;5.80;2.33;;;;;;;19.15;44.13;101552.00;5146761;28;20469;-48
2022/09/17 10:01:59;;;;;;;13.80;2.47;;;;;;;19.12;44.04;101557.72;5143030;28;20409;-49
2022/09/17 10:04:32;;;;;;;;;;;;;;;18.98;44.23;101555.91;5152246;28;20440;-53
2022/09/17 10:07:08;;;;;;;16.65;3.78;;;;;;;18.63;45.00;101552.97;5149701;28;20228;-47
2022/09/17 10:09:47;;;;;;;15.77;2.33;;;;;;;18.54;45.10;101548.72;5145190;28;20498;-49
2022/09/17 10:12:20;;;;;;;12.93;3.10;;;;;;;18.52;45.17;101534.69;5139318;28;20298;-50
2022/09/17 10:14:55;;;;;;;19.05;2.60;;;;;;;18.52;45.17;101542.72;5146439;28;20069;-47
2022/09/17 10:17:28;;;;;;;10.70;2.15;;;;;;;18.41;45.20;101536.81;5127841;28;20119;-52
2022/09/17 10:20:18;;;;;;;6.80;2.33;;;;;;;18.54;45.17;101536.16;5134091;28;20053;-50
2022/09/17 10:22:52;;;;;;;9.32;1.75;;;;;;;18.74;44.87;101533.81;5132900;28;20123;-48
2022/09/17 10:25:34;;;;;;;12.13;2.92;;;;;;;18.52;45.03;101548.06;5142074;28;20052;-43
2022/09/17 10:28:33;;;;;;;12.13;2.22;;;;;;;18.36;45.24;101538.38;5136582;28;20350;-47
2022/09/17 10:31:09;;;;;;;11.68;2.30;;;;;;;18.42;45.40;101532.31;5130244;28;20393;-50
2022/09/17 10:33:57;;;;;;;10.35;3.08;;;;;;;18.43;45.19;101545.50;5137159;28;20530;-53
2022/09/17 10:36:42;;;;;;;9.02;1.92;;;;;;;18.52;44.75;101535.56;5133300;28;20383;-49
2022/09/17 10:39:33;;;;;;;6.90;1.63;;;;;;;18.52;44.75;101534.69;5136030;28;20050;-49
2022/09/17 10:42:16;;;;;;;11.80;1.70;;;;;;;18.64;44.60;101546.59;5132238;28;20411;-51
2022/09/17 10:44:53;;;;;;;7.10;2.05;;;;;;;18.66;44.18;101544.56;5124021;28;20038;-52
2022/09/17 10:47:29;;;;;;;10.20;2.45;;;;;;;18.60;44.22;101524.72;5138575;28;20422;-48
2022/09/17 10:50:08;;;;;;;12.20;3.00;;;;;;;18.65;44.30;101534.88;5135211;28;20055;-49
2022/09/17 10:52:47;;;;;;;15.63;2.50;;;;;;;18.65;44.34;101540.25;5145145;28;20415;-51
2022/09/17 10:55:28;;;;;;;8.75;2.17;;;;;;;18.61;43.90;101538.94;5139012;28;20060;-52
2022/09/17 10:58:24;;;;;;;13.00;2.10;;;;;;;18.76;43.81;101537.09;5119043;28;20037;-50
2022/09/17 11:01:09;;;;;;;13.43;2.38;;;;;;;18.97;43.34;101535.50;5130732;28;20776;-52
2022/09/17 11:04:08;;;;;;;17.20;2.55;;;;;;;19.00;43.58;101527.09;5140194;28;20277;-49
2022/09/17 11:07:28;;;;;;;14.85;2.20;;;;;;;18.92;43.59;101530.72;5147118;28;20168;-53
2022/09/17 11:10:12;;;;;;;7.45;2.05;;;;;;;18.91;43.57;101528.22;5122892;28;20151;-50
2022/09/17 11:13:08;;;;;;;8.30;2.63;;;;;;;19.08;43.04;101529.69;5150142;28;20610;-50
2022/09/17 11:16:12;;;;;;;13.23;2.72;;;;;;;19.03;43.11;101545.47;5152068;28;20780;-52
2022/09/17 11:18:50;;;;;;;12.95;2.67;;;;;;;18.84;43.62;101539.69;5142471;28;20053;-55
2022/09/17 11:21:46;;;;;;;17.10;2.72;;;;;;;18.57;43.82;101551.84;5150802;28;20381;-50
2022/09/17 11:25:09;;;;;;;8.63;2.20;;;;;;;18.46;44.26;101564.84;5148685;28;20099;-53
2022/09/17 11:28:01;;;;;;;7.85;2.03;;;;;;;18.03;44.86;101557.44;5142496;28;20539;-49
2022/09/17 11:30:41;;;;;;;10.18;2.17;;;;;;;17.74;45.62;101558.16;5134955;28;20541;-55
2022/09/17 11:33:42;;;;;;;8.48;1.85;;;;;;;17.49;46.14;101536.13;5142460;28;20052;-48
2022/09/17 11:36:21;;;;;;;6.93;2.10;;;;;;;17.49;46.35;101561.00;5135206;28;20057;-51
2022/09/17 11:38:58;;;;;;;9.02;1.85;;;;;;;17.48;46.24;101548.66;5129519;28;20053;-40
2022/09/17 11:41:38;;;;;;;9.98;2.13;;;;;;;17.54;46.35;101562.31;5127771;28;20042;-52
2022/09/17 11:44:20;;;;;;;7.40;2.25;;;;;;;17.66;46.11;101539.53;5136674;28;20663;-53
2022/09/17 11:46:58;;;;;;;6.60;1.77;;;;;;;17.86;45.19;101556.75;5140463;28;20470;-45
2022/09/17 11:49:39;;;;;;;11.63;2.08;;;;;;;18.00;45.43;101562.31;5123816;28;20450;-51
2022/09/17 11:52:18;;;;;;;14.80;2.05;;;;;;;18.16;45.29;101554.16;5138883;28;20479;-54
2022/09/17 11:54:57;;;;;;;12.18;2.60;;;;;;;18.23;45.48;101555.06;5129590;28;20057;-47
2022/09/17 11:57:35;;;;;;;14.05;2.45;;;;;;;18.19;45.58;101562.63;5127405;28;20387;-45
2022/09/17 12:00:17;;;;;;;9.05;2.30;;;;;;;18.15;45.56;101565.88;5141626;28;20060;-49
2022/09/17 12:02:58;;;;;;;10.82;2.47;;;;;;;18.23;45.24;101556.91;5136455;28;20056;-47
2022/09/17 12:05:36;;;;;;;11.77;2.03;;;;;;;18.58;44.86;101555.34;5129897;28;20505;-49
2022/09/17 12:08:16;;;;;;;11.65;2.05;;;;;;;18.64;44.31;101543.91;5134254;28;20488;-48
2022/09/17 12:10:53;;;;;;;13.13;1.98;;;;;;;18.67;44.02;101538.19;5119494;28;20436;-47
2022/09/17 12:13:35;;;;;;;18.23;3.92;;;;;;;18.62;44.31;101551.31;5118672;28;20049;-53
2022/09/17 12:16:16;;;;;;;11.02;2.15;;;;;;;18.55;44.44;101534.31;5123439;28;20378;-52